sensor_id;sensor_type;location;lat;lon;timestamp;P1;durP1;ratioP1;P2;durP2;ratioP2
66946;SDS011;53853;51.982;5.928;2023-02-18T00:02:21;47.55;;;26.38;;
66946;SDS011;53853;51.982;5.928;2023-02-18T00:04:53;38.05;;;24.15;;
66946;SDS011;53853;51.982;5.928;2023-02-18T00:07:23;40.58;;;25.98;;
66946;SDS011;53853;51.982;5.928;2023-02-18T00:09:53;52.20;;;29.85;;
66946;SDS011;53853;51.982;5.928;2023-02-18T00:12:25;50.28;;;28.85;;
66946;SDS011;53853;51.982;5.928;2023-02-18T00:14:55;50.60;;;28.83;;
66946;SDS011;53853;51.982;5.928;2023-02-18T00:17:25;60.35;;;28.90;;
66946;SDS011;53853;51.982;5.928;2023-02-18T00:19:56;37.25;;;23.67;;
66946;SDS011;53853;51.982;5.928;2023-02-18T00:22:26;52.15;;;27.00;;
66946;SDS011;53853;51.982;5.928;2023-02-18T00:24:56;60.63;;;31.17;;
66946;SDS011;53853;51.982;5.928;2023-02-18T00:27:28;53.13;;;28.55;;
66946;SDS011;53853;51.982;5.928;2023-02-18T00:30:00;47.67;;;27.20;;
66946;SDS011;53853;51.982;5.928;2023-02-18T00:32:33;60.58;;;29.77;;
66946;SDS011;53853;51.982;5.928;2023-02-18T00:35:03;63.95;;;31.75;;
66946;SDS011;53853;51.982;5.928;2023-02-18T00:37:33;45.55;;;29.85;;
66946;SDS011;53853;51.982;5.928;2023-02-18T00:40:04;57.25;;;29.52;;
66946;SDS011;53853;51.982;5.928;2023-02-18T00:42:37;41.42;;;25.85;;
66946;SDS011;53853;51.982;5.928;2023-02-18T00:45:07;42.03;;;26.75;;
66946;SDS011;53853;51.982;5.928;2023-02-18T00:47:37;33.95;;;22.95;;
66946;SDS011;53853;51.982;5.928;2023-02-18T00:50:08;45.80;;;25.33;;
66946;SDS011;53853;51.982;5.928;2023-02-18T00:52:38;52.00;;;29.40;;
66946;SDS011;53853;51.982;5.928;2023-02-18T00:55:08;46.85;;;27.33;;
66946;SDS011;53853;51.982;5.928;2023-02-18T00:57:41;43.33;;;27.17;;
66946;SDS011;53853;51.982;5.928;2023-02-18T01:00:11;51.35;;;27.98;;
66946;SDS011;53853;51.982;5.928;2023-02-18T01:02:41;52.50;;;29.38;;
66946;SDS011;53853;51.982;5.928;2023-02-18T01:05:11;41.28;;;26.25;;
66946;SDS011;53853;51.982;5.928;2023-02-18T01:07:41;43.45;;;26.60;;
66946;SDS011;53853;51.982;5.928;2023-02-18T01:10:11;50.78;;;28.52;;
66946;SDS011;53853;51.982;5.928;2023-02-18T01:12:44;43.40;;;26.55;;
66946;SDS011;53853;51.982;5.928;2023-02-18T01:15:14;39.60;;;24.85;;
66946;SDS011;53853;51.982;5.928;2023-02-18T01:17:44;46.58;;;26.92;;
66946;SDS011;53853;51.982;5.928;2023-02-18T01:22:47;45.20;;;27.25;;
66946;SDS011;53853;51.982;5.928;2023-02-18T01:25:16;39.83;;;24.73;;
66946;SDS011;53853;51.982;5.928;2023-02-18T01:27:49;31.35;;;22.23;;
66946;SDS011;53853;51.982;5.928;2023-02-18T01:30:19;41.33;;;25.73;;
66946;SDS011;53853;51.982;5.928;2023-02-18T01:32:49;47.53;;;23.80;;
66946;SDS011;53853;51.982;5.928;2023-02-18T01:35:19;42.15;;;24.80;;
66946;SDS011;53853;51.982;5.928;2023-02-18T01:37:49;41.58;;;25.17;;
66946;SDS011;53853;51.982;5.928;2023-02-18T01:40:21;42.92;;;25.50;;
66946;SDS011;53853;51.982;5.928;2023-02-18T01:42:55;37.25;;;24.00;;
66946;SDS011;53853;51.982;5.928;2023-02-18T01:48:26;41.22;;;24.67;;
66946;SDS011;53853;51.982;5.928;2023-02-18T01:50:59;35.67;;;22.42;;
66946;SDS011;53853;51.982;5.928;2023-02-18T01:53:35;38.42;;;22.80;;
66946;SDS011;53853;51.982;5.928;2023-02-18T01:56:10;41.88;;;28.08;;
66946;SDS011;53853;51.982;5.928;2023-02-18T02:01:16;44.73;;;27.87;;
66946;SDS011;53853;51.982;5.928;2023-02-18T02:03:46;43.40;;;27.63;;
66946;SDS011;53853;51.982;5.928;2023-02-18T02:06:18;46.78;;;29.25;;
66946;SDS011;53853;51.982;5.928;2023-02-18T02:08:50;49.97;;;29.90;;
66946;SDS011;53853;51.982;5.928;2023-02-18T02:11:29;47.33;;;27.15;;
66946;SDS011;53853;51.982;5.928;2023-02-18T02:14:15;38.83;;;26.08;;
66946;SDS011;53853;51.982;5.928;2023-02-18T02:16:55;36.97;;;24.52;;
66946;SDS011;53853;51.982;5.928;2023-02-18T02:22:50;55.92;;;30.65;;
66946;SDS011;53853;51.982;5.928;2023-02-18T02:29:00;46.75;;;30.55;;
66946;SDS011;53853;51.982;5.928;2023-02-18T02:34:49;69.88;;;38.22;;
66946;SDS011;53853;51.982;5.928;2023-02-18T02:37:25;61.05;;;34.42;;
66946;SDS011;53853;51.982;5.928;2023-02-18T02:40:06;55.28;;;35.83;;
66946;SDS011;53853;51.982;5.928;2023-02-18T02:42:48;45.90;;;31.75;;
66946;SDS011;53853;51.982;5.928;2023-02-18T02:45:32;46.92;;;30.63;;
66946;SDS011;53853;51.982;5.928;2023-02-18T02:48:12;72.88;;;39.40;;
66946;SDS011;53853;51.982;5.928;2023-02-18T02:50:53;81.88;;;40.55;;
66946;SDS011;53853;51.982;5.928;2023-02-18T02:53:34;58.90;;;35.95;;
66946;SDS011;53853;51.982;5.928;2023-02-18T02:56:09;52.30;;;33.25;;
66946;SDS011;53853;51.982;5.928;2023-02-18T02:58:42;62.03;;;37.10;;
66946;SDS011;53853;51.982;5.928;2023-02-18T03:01:19;56.63;;;35.70;;
66946;SDS011;53853;51.982;5.928;2023-02-18T03:04:10;55.13;;;37.28;;
66946;SDS011;53853;51.982;5.928;2023-02-18T03:07:10;43.88;;;34.15;;
66946;SDS011;53853;51.982;5.928;2023-02-18T03:12:36;79.07;;;36.72;;
66946;SDS011;53853;51.982;5.928;2023-02-18T03:15:15;56.05;;;34.25;;
66946;SDS011;53853;51.982;5.928;2023-02-18T03:17:51;68.70;;;37.33;;
66946;SDS011;53853;51.982;5.928;2023-02-18T03:20:27;56.38;;;35.08;;
66946;SDS011;53853;51.982;5.928;2023-02-18T03:23:07;55.60;;;35.85;;
66946;SDS011;53853;51.982;5.928;2023-02-18T03:25:43;53.15;;;35.38;;
66946;SDS011;53853;51.982;5.928;2023-02-18T03:28:14;71.22;;;36.60;;
66946;SDS011;53853;51.982;5.928;2023-02-18T03:30:50;48.20;;;32.25;;
66946;SDS011;53853;51.982;5.928;2023-02-18T03:33:24;59.20;;;33.42;;
66946;SDS011;53853;51.982;5.928;2023-02-18T03:35:57;61.35;;;32.03;;
66946;SDS011;53853;51.982;5.928;2023-02-18T03:38:32;43.55;;;28.98;;
66946;SDS011;53853;51.982;5.928;2023-02-18T03:41:06;47.67;;;30.23;;
66946;SDS011;53853;51.982;5.928;2023-02-18T03:43:37;45.17;;;27.55;;
66946;SDS011;53853;51.982;5.928;2023-02-18T03:46:08;49.95;;;29.65;;
66946;SDS011;53853;51.982;5.928;2023-02-18T03:48:38;43.85;;;26.48;;
66946;SDS011;53853;51.982;5.928;2023-02-18T03:51:08;42.60;;;25.77;;
66946;SDS011;53853;51.982;5.928;2023-02-18T03:53:41;39.85;;;24.08;;
66946;SDS011;53853;51.982;5.928;2023-02-18T03:56:11;35.63;;;22.08;;
66946;SDS011;53853;51.982;5.928;2023-02-18T03:58:41;35.75;;;22.70;;
66946;SDS011;53853;51.982;5.928;2023-02-18T04:01:12;36.03;;;21.75;;
66946;SDS011;53853;51.982;5.928;2023-02-18T04:03:42;25.90;;;19.25;;
66946;SDS011;53853;51.982;5.928;2023-02-18T04:06:12;28.30;;;19.65;;
66946;SDS011;53853;51.982;5.928;2023-02-18T04:08:44;22.40;;;15.93;;
66946;SDS011;53853;51.982;5.928;2023-02-18T04:11:14;19.65;;;15.38;;
66946;SDS011;53853;51.982;5.928;2023-02-18T04:13:44;22.50;;;16.05;;
66946;SDS011;53853;51.982;5.928;2023-02-18T04:16:14;16.52;;;13.55;;
66946;SDS011;53853;51.982;5.928;2023-02-18T04:18:44;16.52;;;13.40;;
66946;SDS011;53853;51.982;5.928;2023-02-18T04:21:14;18.65;;;15.02;;
66946;SDS011;53853;51.982;5.928;2023-02-18T04:23:46;19.45;;;15.88;;
66946;SDS011;53853;51.982;5.928;2023-02-18T04:26:16;25.75;;;16.98;;
66946;SDS011;53853;51.982;5.928;2023-02-18T04:28:46;20.75;;;16.42;;
66946;SDS011;53853;51.982;5.928;2023-02-18T04:31:16;20.88;;;16.05;;
66946;SDS011;53853;51.982;5.928;2023-02-18T04:33:46;22.65;;;15.68;;
66946;SDS011;53853;51.982;5.928;2023-02-18T04:36:16;26.10;;;16.48;;
66946;SDS011;53853;51.982;5.928;2023-02-18T04:38:48;22.00;;;15.32;;
66946;SDS011;53853;51.982;5.928;2023-02-18T04:41:18;16.75;;;13.35;;
66946;SDS011;53853;51.982;5.928;2023-02-18T04:43:48;23.95;;;15.00;;
66946;SDS011;53853;51.982;5.928;2023-02-18T04:46:18;15.80;;;12.18;;
66946;SDS011;53853;51.982;5.928;2023-02-18T04:48:48;15.90;;;11.45;;
66946;SDS011;53853;51.982;5.928;2023-02-18T04:51:18;17.00;;;11.77;;
66946;SDS011;53853;51.982;5.928;2023-02-18T04:53:50;15.40;;;10.70;;
66946;SDS011;53853;51.982;5.928;2023-02-18T04:56:20;19.13;;;11.82;;
66946;SDS011;53853;51.982;5.928;2023-02-18T04:58:50;13.60;;;10.20;;
66946;SDS011;53853;51.982;5.928;2023-02-18T05:01:20;13.50;;;9.90;;
66946;SDS011;53853;51.982;5.928;2023-02-18T05:03:50;16.63;;;9.93;;
66946;SDS011;53853;51.982;5.928;2023-02-18T05:06:20;11.02;;;8.80;;
66946;SDS011;53853;51.982;5.928;2023-02-18T05:08:52;10.30;;;8.68;;
66946;SDS011;53853;51.982;5.928;2023-02-18T05:11:22;11.98;;;9.00;;
66946;SDS011;53853;51.982;5.928;2023-02-18T05:13:52;11.38;;;7.93;;
66946;SDS011;53853;51.982;5.928;2023-02-18T05:16:22;10.15;;;8.25;;
66946;SDS011;53853;51.982;5.928;2023-02-18T05:18:52;11.73;;;9.13;;
66946;SDS011;53853;51.982;5.928;2023-02-18T05:21:22;9.25;;;7.00;;
66946;SDS011;53853;51.982;5.928;2023-02-18T05:23:54;9.13;;;7.32;;
66946;SDS011;53853;51.982;5.928;2023-02-18T05:26:24;11.70;;;8.10;;
66946;SDS011;53853;51.982;5.928;2023-02-18T05:28:54;10.85;;;8.15;;
66946;SDS011;53853;51.982;5.928;2023-02-18T05:31:24;11.65;;;8.02;;
66946;SDS011;53853;51.982;5.928;2023-02-18T05:33:54;10.73;;;7.95;;
66946;SDS011;53853;51.982;5.928;2023-02-18T05:36:24;10.23;;;7.28;;
66946;SDS011;53853;51.982;5.928;2023-02-18T05:38:57;9.07;;;7.07;;
66946;SDS011;53853;51.982;5.928;2023-02-18T05:41:27;9.55;;;7.28;;
66946;SDS011;53853;51.982;5.928;2023-02-18T05:43:57;8.98;;;6.90;;
66946;SDS011;53853;51.982;5.928;2023-02-18T05:46:39;10.05;;;6.18;;
66946;SDS011;53853;51.982;5.928;2023-02-18T05:49:09;8.38;;;5.72;;
66946;SDS011;53853;51.982;5.928;2023-02-18T05:51:39;8.70;;;6.75;;
66946;SDS011;53853;51.982;5.928;2023-02-18T05:54:11;5.47;;;4.18;;
66946;SDS011;53853;51.982;5.928;2023-02-18T05:56:41;8.57;;;5.88;;
66946;SDS011;53853;51.982;5.928;2023-02-18T05:59:11;8.30;;;5.95;;
66946;SDS011;53853;51.982;5.928;2023-02-18T06:01:41;5.47;;;4.43;;
66946;SDS011;53853;51.982;5.928;2023-02-18T06:04:11;7.20;;;5.30;;
66946;SDS011;53853;51.982;5.928;2023-02-18T06:06:41;7.00;;;5.22;;
66946;SDS011;53853;51.982;5.928;2023-02-18T06:09:14;6.70;;;5.15;;
66946;SDS011;53853;51.982;5.928;2023-02-18T06:11:44;5.93;;;4.78;;
66946;SDS011;53853;51.982;5.928;2023-02-18T06:14:13;6.05;;;4.25;;
66946;SDS011;53853;51.982;5.928;2023-02-18T06:16:44;6.35;;;3.78;;
66946;SDS011;53853;51.982;5.928;2023-02-18T06:19:13;4.03;;;3.08;;
66946;SDS011;53853;51.982;5.928;2023-02-18T06:21:43;4.68;;;3.88;;
66946;SDS011;53853;51.982;5.928;2023-02-18T06:24:16;8.43;;;5.80;;
66946;SDS011;53853;51.982;5.928;2023-02-18T06:26:45;7.35;;;5.97;;
66946;SDS011;53853;51.982;5.928;2023-02-18T06:29:15;8.60;;;6.50;;
66946;SDS011;53853;51.982;5.928;2023-02-18T06:31:45;10.85;;;7.88;;
66946;SDS011;53853;51.982;5.928;2023-02-18T06:34:15;9.25;;;7.50;;
66946;SDS011;53853;51.982;5.928;2023-02-18T06:36:45;9.13;;;6.97;;
66946;SDS011;53853;51.982;5.928;2023-02-18T06:39:18;6.80;;;5.95;;
66946;SDS011;53853;51.982;5.928;2023-02-18T06:41:48;9.27;;;6.70;;
66946;SDS011;53853;51.982;5.928;2023-02-18T06:44:17;8.65;;;6.70;;
66946;SDS011;53853;51.982;5.928;2023-02-18T06:46:47;10.00;;;7.20;;
66946;SDS011;53853;51.982;5.928;2023-02-18T06:49:17;9.15;;;7.05;;
66946;SDS011;53853;51.982;5.928;2023-02-18T06:51:47;7.57;;;6.70;;
66946;SDS011;53853;51.982;5.928;2023-02-18T06:54:20;7.25;;;6.07;;
66946;SDS011;53853;51.982;5.928;2023-02-18T06:56:49;11.38;;;7.10;;
66946;SDS011;53853;51.982;5.928;2023-02-18T06:59:19;7.00;;;6.05;;
66946;SDS011;53853;51.982;5.928;2023-02-18T07:01:49;7.93;;;6.38;;
66946;SDS011;53853;51.982;5.928;2023-02-18T07:04:19;7.30;;;6.05;;
66946;SDS011;53853;51.982;5.928;2023-02-18T07:06:49;7.90;;;5.53;;
66946;SDS011;53853;51.982;5.928;2023-02-18T07:09:21;6.43;;;5.28;;
66946;SDS011;53853;51.982;5.928;2023-02-18T07:11:51;6.78;;;5.32;;
66946;SDS011;53853;51.982;5.928;2023-02-18T07:14:21;6.28;;;5.40;;
66946;SDS011;53853;51.982;5.928;2023-02-18T07:16:52;6.82;;;5.35;;
66946;SDS011;53853;51.982;5.928;2023-02-18T07:19:22;10.63;;;6.97;;
66946;SDS011;53853;51.982;5.928;2023-02-18T07:21:52;11.25;;;7.47;;
66946;SDS011;53853;51.982;5.928;2023-02-18T07:24:25;11.23;;;7.82;;
66946;SDS011;53853;51.982;5.928;2023-02-18T07:26:55;9.13;;;7.50;;
66946;SDS011;53853;51.982;5.928;2023-02-18T07:29:25;11.85;;;8.85;;
66946;SDS011;53853;51.982;5.928;2023-02-18T07:31:55;13.88;;;8.10;;
66946;SDS011;53853;51.982;5.928;2023-02-18T07:34:25;11.35;;;8.73;;
66946;SDS011;53853;51.982;5.928;2023-02-18T07:36:55;11.50;;;7.93;;
66946;SDS011;53853;51.982;5.928;2023-02-18T07:39:27;11.00;;;7.63;;
66946;SDS011;53853;51.982;5.928;2023-02-18T07:41:57;11.25;;;8.13;;
66946;SDS011;53853;51.982;5.928;2023-02-18T07:44:27;11.98;;;8.68;;
66946;SDS011;53853;51.982;5.928;2023-02-18T07:46:57;12.52;;;7.75;;
66946;SDS011;53853;51.982;5.928;2023-02-18T07:49:27;8.98;;;6.40;;
66946;SDS011;53853;51.982;5.928;2023-02-18T07:51:58;16.25;;;8.93;;
66946;SDS011;53853;51.982;5.928;2023-02-18T07:54:31;13.48;;;7.75;;
66946;SDS011;53853;51.982;5.928;2023-02-18T07:57:01;10.75;;;7.65;;
66946;SDS011;53853;51.982;5.928;2023-02-18T07:59:31;16.40;;;8.45;;
66946;SDS011;53853;51.982;5.928;2023-02-18T08:02:00;13.48;;;7.20;;
66946;SDS011;53853;51.982;5.928;2023-02-18T08:04:32;12.85;;;7.63;;
66946;SDS011;53853;51.982;5.928;2023-02-18T08:07:02;15.88;;;7.50;;
66946;SDS011;53853;51.982;5.928;2023-02-18T08:09:34;10.18;;;5.85;;
66946;SDS011;53853;51.982;5.928;2023-02-18T08:12:05;14.18;;;6.72;;
66946;SDS011;53853;51.982;5.928;2023-02-18T08:14:35;21.33;;;7.05;;
66946;SDS011;53853;51.982;5.928;2023-02-18T08:17:05;14.65;;;5.93;;
66946;SDS011;53853;51.982;5.928;2023-02-18T08:19:35;22.02;;;7.38;;
66946;SDS011;53853;51.982;5.928;2023-02-18T08:22:05;17.38;;;6.45;;
66946;SDS011;53853;51.982;5.928;2023-02-18T08:24:37;16.00;;;5.90;;
66946;SDS011;53853;51.982;5.928;2023-02-18T08:27:07;17.90;;;5.68;;
66946;SDS011;53853;51.982;5.928;2023-02-18T08:29:38;15.57;;;5.47;;
66946;SDS011;53853;51.982;5.928;2023-02-18T08:32:08;18.58;;;5.38;;
66946;SDS011;53853;51.982;5.928;2023-02-18T08:34:38;22.67;;;6.78;;
66946;SDS011;53853;51.982;5.928;2023-02-18T08:37:08;13.70;;;5.50;;
66946;SDS011;53853;51.982;5.928;2023-02-18T08:39:40;14.02;;;5.32;;
66946;SDS011;53853;51.982;5.928;2023-02-18T08:42:10;15.60;;;6.18;;
66946;SDS011;53853;51.982;5.928;2023-02-18T08:44:40;18.67;;;6.90;;
66946;SDS011;53853;51.982;5.928;2023-02-18T08:47:10;19.05;;;7.03;;
66946;SDS011;53853;51.982;5.928;2023-02-18T08:49:40;20.90;;;7.38;;
66946;SDS011;53853;51.982;5.928;2023-02-18T08:52:10;16.77;;;6.25;;
66946;SDS011;53853;51.982;5.928;2023-02-18T08:54:43;20.83;;;7.15;;
66946;SDS011;53853;51.982;5.928;2023-02-18T08:57:12;15.70;;;6.35;;
66946;SDS011;53853;51.982;5.928;2023-02-18T08:59:42;17.17;;;6.90;;
66946;SDS011;53853;51.982;5.928;2023-02-18T09:02:13;17.63;;;6.65;;
66946;SDS011;53853;51.982;5.928;2023-02-18T09:04:43;22.45;;;6.80;;
66946;SDS011;53853;51.982;5.928;2023-02-18T09:07:13;20.85;;;7.18;;
66946;SDS011;53853;51.982;5.928;2023-02-18T09:09:47;22.65;;;8.25;;
66946;SDS011;53853;51.982;5.928;2023-02-18T09:12:16;23.08;;;6.28;;
66946;SDS011;53853;51.982;5.928;2023-02-18T09:14:46;15.75;;;5.35;;
66946;SDS011;53853;51.982;5.928;2023-02-18T09:17:16;13.02;;;4.75;;
66946;SDS011;53853;51.982;5.928;2023-02-18T09:19:46;14.38;;;4.65;;
66946;SDS011;53853;51.982;5.928;2023-02-18T09:22:16;11.30;;;3.63;;
66946;SDS011;53853;51.982;5.928;2023-02-18T09:24:49;13.15;;;4.03;;
66946;SDS011;53853;51.982;5.928;2023-02-18T09:27:19;15.50;;;3.92;;
66946;SDS011;53853;51.982;5.928;2023-02-18T09:29:49;12.48;;;3.78;;
66946;SDS011;53853;51.982;5.928;2023-02-18T09:32:19;14.73;;;4.13;;
66946;SDS011;53853;51.982;5.928;2023-02-18T09:34:49;13.88;;;4.95;;
66946;SDS011;53853;51.982;5.928;2023-02-18T09:37:19;16.63;;;4.95;;
66946;SDS011;53853;51.982;5.928;2023-02-18T09:39:51;12.32;;;4.60;;
66946;SDS011;53853;51.982;5.928;2023-02-18T09:42:23;10.60;;;4.40;;
66946;SDS011;53853;51.982;5.928;2023-02-18T09:44:59;16.77;;;5.47;;
66946;SDS011;53853;51.982;5.928;2023-02-18T09:50:05;16.48;;;5.55;;
66946;SDS011;53853;51.982;5.928;2023-02-18T09:52:41;15.10;;;5.25;;
66946;SDS011;53853;51.982;5.928;2023-02-18T09:55:19;17.85;;;4.95;;
66946;SDS011;53853;51.982;5.928;2023-02-18T09:57:51;11.57;;;3.90;;
66946;SDS011;53853;51.982;5.928;2023-02-18T10:00:24;14.70;;;5.47;;
66946;SDS011;53853;51.982;5.928;2023-02-18T10:03:00;18.00;;;4.18;;
66946;SDS011;53853;51.982;5.928;2023-02-18T10:05:33;13.88;;;4.47;;
66946;SDS011;53853;51.982;5.928;2023-02-18T10:08:12;14.48;;;4.95;;
66946;SDS011;53853;51.982;5.928;2023-02-18T10:10:51;13.95;;;4.07;;
66946;SDS011;53853;51.982;5.928;2023-02-18T10:13:22;19.88;;;4.47;;
66946;SDS011;53853;51.982;5.928;2023-02-18T10:15:55;14.00;;;3.78;;
66946;SDS011;53853;51.982;5.928;2023-02-18T10:18:26;12.07;;;3.83;;
66946;SDS011;53853;51.982;5.928;2023-02-18T10:21:00;16.08;;;4.65;;
66946;SDS011;53853;51.982;5.928;2023-02-18T10:23:35;15.60;;;3.75;;
66946;SDS011;53853;51.982;5.928;2023-02-18T10:26:11;13.85;;;4.68;;
66946;SDS011;53853;51.982;5.928;2023-02-18T10:28:44;20.58;;;4.22;;
66946;SDS011;53853;51.982;5.928;2023-02-18T10:31:16;12.45;;;4.45;;
66946;SDS011;53853;51.982;5.928;2023-02-18T10:33:51;17.48;;;4.90;;
66946;SDS011;53853;51.982;5.928;2023-02-18T10:36:26;18.73;;;5.40;;
66946;SDS011;53853;51.982;5.928;2023-02-18T10:39:10;12.93;;;4.47;;
66946;SDS011;53853;51.982;5.928;2023-02-18T10:42:04;15.48;;;4.07;;
66946;SDS011;53853;51.982;5.928;2023-02-18T10:44:53;17.33;;;4.80;;
66946;SDS011;53853;51.982;5.928;2023-02-18T10:47:34;17.92;;;4.93;;
66946;SDS011;53853;51.982;5.928;2023-02-18T10:50:08;17.48;;;4.43;;
66946;SDS011;53853;51.982;5.928;2023-02-18T10:52:41;11.48;;;4.25;;
66946;SDS011;53853;51.982;5.928;2023-02-18T10:55:13;12.57;;;3.75;;
66946;SDS011;53853;51.982;5.928;2023-02-18T10:57:50;12.82;;;4.38;;
66946;SDS011;53853;51.982;5.928;2023-02-18T11:00:23;11.35;;;3.95;;
66946;SDS011;53853;51.982;5.928;2023-02-18T11:03:09;15.55;;;4.90;;
66946;SDS011;53853;51.982;5.928;2023-02-18T11:05:43;15.32;;;5.35;;
66946;SDS011;53853;51.982;5.928;2023-02-18T11:08:16;17.50;;;4.93;;
66946;SDS011;53853;51.982;5.928;2023-02-18T11:10:49;14.60;;;3.88;;
66946;SDS011;53853;51.982;5.928;2023-02-18T11:13:25;15.43;;;4.75;;
66946;SDS011;53853;51.982;5.928;2023-02-18T11:15:58;14.98;;;5.10;;
66946;SDS011;53853;51.982;5.928;2023-02-18T11:18:32;14.55;;;4.60;;
66946;SDS011;53853;51.982;5.928;2023-02-18T11:21:09;13.18;;;4.47;;
66946;SDS011;53853;51.982;5.928;2023-02-18T11:23:54;19.95;;;5.57;;
66946;SDS011;53853;51.982;5.928;2023-02-18T11:26:27;14.32;;;4.70;;
66946;SDS011;53853;51.982;5.928;2023-02-18T11:29:04;19.63;;;4.28;;
66946;SDS011;53853;51.982;5.928;2023-02-18T11:31:39;13.43;;;4.65;;
66946;SDS011;53853;51.982;5.928;2023-02-18T11:34:15;17.08;;;5.00;;
66946;SDS011;53853;51.982;5.928;2023-02-18T11:36:47;18.65;;;4.63;;
66946;SDS011;53853;51.982;5.928;2023-02-18T11:39:19;14.98;;;4.53;;
66946;SDS011;53853;51.982;5.928;2023-02-18T11:41:53;16.48;;;5.72;;
66946;SDS011;53853;51.982;5.928;2023-02-18T11:44:30;21.08;;;5.68;;
66946;SDS011;53853;51.982;5.928;2023-02-18T11:47:03;12.25;;;4.25;;
66946;SDS011;53853;51.982;5.928;2023-02-18T11:49:58;15.25;;;5.63;;
66946;SDS011;53853;51.982;5.928;2023-02-18T11:52:43;16.77;;;5.75;;
66946;SDS011;53853;51.982;5.928;2023-02-18T11:55:16;19.67;;;4.95;;
66946;SDS011;53853;51.982;5.928;2023-02-18T11:57:49;17.77;;;5.57;;
66946;SDS011;53853;51.982;5.928;2023-02-18T12:00:29;14.38;;;5.15;;
66946;SDS011;53853;51.982;5.928;2023-02-18T12:03:07;14.05;;;5.35;;
66946;SDS011;53853;51.982;5.928;2023-02-18T12:05:45;18.83;;;6.05;;
66946;SDS011;53853;51.982;5.928;2023-02-18T12:08:16;19.70;;;6.18;;
66946;SDS011;53853;51.982;5.928;2023-02-18T12:10:52;15.75;;;6.05;;
66946;SDS011;53853;51.982;5.928;2023-02-18T12:13:27;16.25;;;6.70;;
66946;SDS011;53853;51.982;5.928;2023-02-18T12:16:08;14.95;;;6.00;;
66946;SDS011;53853;51.982;5.928;2023-02-18T12:18:59;16.05;;;6.00;;
66946;SDS011;53853;51.982;5.928;2023-02-18T12:21:41;14.15;;;5.75;;
66946;SDS011;53853;51.982;5.928;2023-02-18T12:24:27;16.00;;;6.63;;
66946;SDS011;53853;51.982;5.928;2023-02-18T12:27:11;20.92;;;6.85;;
66946;SDS011;53853;51.982;5.928;2023-02-18T12:29:51;20.85;;;6.88;;
66946;SDS011;53853;51.982;5.928;2023-02-18T12:35:20;18.40;;;6.80;;
66946;SDS011;53853;51.982;5.928;2023-02-18T12:38:14;19.75;;;7.78;;
66946;SDS011;53853;51.982;5.928;2023-02-18T12:41:04;19.80;;;7.20;;
66946;SDS011;53853;51.982;5.928;2023-02-18T12:43:53;16.73;;;6.85;;
66946;SDS011;53853;51.982;5.928;2023-02-18T12:46:36;15.55;;;6.13;;
66946;SDS011;53853;51.982;5.928;2023-02-18T12:49:25;17.90;;;7.00;;
66946;SDS011;53853;51.982;5.928;2023-02-18T12:52:18;19.45;;;7.15;;
66946;SDS011;53853;51.982;5.928;2023-02-18T12:55:08;11.27;;;5.68;;
66946;SDS011;53853;51.982;5.928;2023-02-18T12:58:04;15.55;;;6.35;;
66946;SDS011;53853;51.982;5.928;2023-02-18T13:00:54;20.63;;;7.50;;
66946;SDS011;53853;51.982;5.928;2023-02-18T13:03:38;18.17;;;7.53;;
66946;SDS011;53853;51.982;5.928;2023-02-18T13:06:32;19.85;;;6.68;;
66946;SDS011;53853;51.982;5.928;2023-02-18T13:09:27;18.20;;;7.30;;
66946;SDS011;53853;51.982;5.928;2023-02-18T13:12:08;18.77;;;7.13;;
66946;SDS011;53853;51.982;5.928;2023-02-18T13:14:46;16.35;;;6.97;;
66946;SDS011;53853;51.982;5.928;2023-02-18T13:17:22;25.63;;;7.43;;
66946;SDS011;53853;51.982;5.928;2023-02-18T13:19:56;21.63;;;7.00;;
66946;SDS011;53853;51.982;5.928;2023-02-18T13:22:33;15.60;;;6.55;;
66946;SDS011;53853;51.982;5.928;2023-02-18T13:25:05;15.10;;;6.20;;
66946;SDS011;53853;51.982;5.928;2023-02-18T13:27:40;20.77;;;7.03;;
66946;SDS011;53853;51.982;5.928;2023-02-18T13:30:17;22.33;;;6.20;;
66946;SDS011;53853;51.982;5.928;2023-02-18T13:32:56;16.15;;;5.28;;
66946;SDS011;53853;51.982;5.928;2023-02-18T13:35:33;14.98;;;6.05;;
66946;SDS011;53853;51.982;5.928;2023-02-18T13:38:21;20.08;;;6.82;;
66946;SDS011;53853;51.982;5.928;2023-02-18T13:41:13;20.38;;;5.78;;
66946;SDS011;53853;51.982;5.928;2023-02-18T13:43:43;18.23;;;6.47;;
66946;SDS011;53853;51.982;5.928;2023-02-18T13:46:13;15.68;;;5.80;;
66946;SDS011;53853;51.982;5.928;2023-02-18T13:48:45;23.65;;;6.35;;
66946;SDS011;53853;51.982;5.928;2023-02-18T13:51:17;18.23;;;5.43;;
66946;SDS011;53853;51.982;5.928;2023-02-18T13:54:02;12.68;;;6.55;;
66946;SDS011;53853;51.982;5.928;2023-02-18T13:56:43;16.00;;;6.63;;
66946;SDS011;53853;51.982;5.928;2023-02-18T13:59:16;18.73;;;6.78;;
66946;SDS011;53853;51.982;5.928;2023-02-18T14:04:36;18.02;;;6.97;;
66946;SDS011;53853;51.982;5.928;2023-02-18T14:10:30;17.45;;;7.43;;
66946;SDS011;53853;51.982;5.928;2023-02-18T14:16:01;24.05;;;7.80;;
66946;SDS011;53853;51.982;5.928;2023-02-18T14:18:33;17.23;;;7.35;;
66946;SDS011;53853;51.982;5.928;2023-02-18T14:21:19;21.45;;;7.55;;
66946;SDS011;53853;51.982;5.928;2023-02-18T14:24:03;15.27;;;6.60;;
66946;SDS011;53853;51.982;5.928;2023-02-18T14:26:47;17.73;;;7.00;;
66946;SDS011;53853;51.982;5.928;2023-02-18T14:29:19;19.55;;;7.43;;
66946;SDS011;53853;51.982;5.928;2023-02-18T14:31:56;15.23;;;7.40;;
66946;SDS011;53853;51.982;5.928;2023-02-18T14:40:41;25.55;;;8.32;;
66946;SDS011;53853;51.982;5.928;2023-02-18T14:43:26;19.73;;;7.68;;
66946;SDS011;53853;51.982;5.928;2023-02-18T14:46:11;18.60;;;7.57;;
66946;SDS011;53853;51.982;5.928;2023-02-18T14:49:02;27.40;;;8.77;;
66946;SDS011;53853;51.982;5.928;2023-02-18T14:51:41;15.18;;;6.25;;
66946;SDS011;53853;51.982;5.928;2023-02-18T14:54:15;18.08;;;7.70;;
66946;SDS011;53853;51.982;5.928;2023-02-18T14:56:51;15.38;;;7.60;;
66946;SDS011;53853;51.982;5.928;2023-02-18T14:59:27;15.68;;;7.05;;
66946;SDS011;53853;51.982;5.928;2023-02-18T15:01:59;18.30;;;7.70;;
66946;SDS011;53853;51.982;5.928;2023-02-18T15:04:29;15.23;;;6.55;;
66946;SDS011;53853;51.982;5.928;2023-02-18T15:07:00;18.38;;;8.30;;
66946;SDS011;53853;51.982;5.928;2023-02-18T15:09:31;20.77;;;7.72;;
66946;SDS011;53853;51.982;5.928;2023-02-18T15:12:02;16.85;;;7.38;;
66946;SDS011;53853;51.982;5.928;2023-02-18T15:14:36;17.20;;;7.20;;
66946;SDS011;53853;51.982;5.928;2023-02-18T15:17:11;12.88;;;6.30;;
66946;SDS011;53853;51.982;5.928;2023-02-18T15:19:46;18.67;;;6.68;;
66946;SDS011;53853;51.982;5.928;2023-02-18T15:22:21;13.60;;;7.00;;
66946;SDS011;53853;51.982;5.928;2023-02-18T15:24:53;19.33;;;7.65;;
66946;SDS011;53853;51.982;5.928;2023-02-18T15:27:23;18.58;;;7.07;;
66946;SDS011;53853;51.982;5.928;2023-02-18T15:30:02;25.88;;;8.85;;
66946;SDS011;53853;51.982;5.928;2023-02-18T15:32:45;25.35;;;7.00;;
66946;SDS011;53853;51.982;5.928;2023-02-18T15:35:20;16.00;;;6.28;;
66946;SDS011;53853;51.982;5.928;2023-02-18T15:37:54;16.25;;;6.53;;
66946;SDS011;53853;51.982;5.928;2023-02-18T15:40:26;18.38;;;8.38;;
66946;SDS011;53853;51.982;5.928;2023-02-18T15:42:58;16.52;;;7.80;;
66946;SDS011;53853;51.982;5.928;2023-02-18T15:45:35;15.70;;;7.27;;
66946;SDS011;53853;51.982;5.928;2023-02-18T15:48:12;21.88;;;7.65;;
66946;SDS011;53853;51.982;5.928;2023-02-18T15:50:50;22.48;;;7.75;;
66946;SDS011;53853;51.982;5.928;2023-02-18T15:53:22;13.15;;;7.25;;